Huvudsida
METAR-TAF:

METAR-TAF

Flygplatser :

Wonderboom Airport

Pretoria, Sydafrika

latitud: 25-39S, longitud: 028-13E, höjd: 1248 m

Aktuellt väderrapport

Denna rapport gjordes för 1 timme och 0 minuter sedan, klockan 22:00 UTC
Stilla vind
Temperatur
Tryck 1025 hPa

METAR: FAWB 252200Z AUTO 00000KT //// // ////// ///// Q1025

Tid: 01:00 (23:00 UTC)

Väderprognos

Denna rapport gjordes för 14 timmar och 0 minuter sedan, klockan 09:00 UTC
Prognos gäller från 25 kl. 10 UTC till 25 kl. 18 UTC
Vind 5 kt från väst/nordväst
Sikt 10 km eller mer
Inga moln under 1 500 m eller inga cumulonimbus

TAF: FAWB 250900Z 2510/2518 30005KT CAVOK TX23/2512Z TN17/2518Z

Aktuella väderrapporter och prognoser från 4000 flygplatser (METAR- och TAF-rapporter).

De tillgängliga stationerna syns som gula och röda prickar på kartan.

För musen över prickarna för att se namnen på stationerna.

Klicka sedan för att få väderrapporter och prognoser.

För att ändra kartan: Klicka på de gröna knapparna med ett svart kors på för att zooma in; den gröna knappen med ett streck på för att zooma ut; eller på de gröna pilarna för angränsande kartor.


METAR-TAF: